Terminal Aerodrome Forecast
Issued by NWS Denver/Boulder, CO

Home | Current Version | Previous Version | Text Only | Print | Product List | Glossary On
Versions: 1 2 3 4 5 6 7 8 9 10 11 12 13 14 15 16 17 18 19 20 21 22 23 24 25 26 27 28 29 30 31 32 33 34 35 36 37 38 39 40
000
FTUS45 KBOU 241458 AAB
TAFDEN
TAF AMD
KDEN 241458Z 2415/2518 14014G23KT P6SM FEW060 SCT120 SCT220
     FM242000 12013G20KT P6SM VCTS SCT080CB BKN120
      TEMPO 2420/2423 VRB18G30KT -TSRA BKN080CB
     FM250000 02012KT P6SM SCT080 BKN120
     FM250200 32008KT P6SM FEW080 SCT120
     FM250600 23009KT P6SM FEW220=

USA.gov is the U.S. government's official web portal to all federal, state and local government web resources and services.